Time;durP1;ratioP1;P1;durP2;ratioP2;P2;SDS_P1;SDS_P2;PMS_P1;PMS_P2;Temp;Humidity;BMP_temperature;BMP_pressure;BME280_temperature;BME280_humidity;BME280_pressure;Samples;Min_cycle;Max_cycle;Signal;HPM_P1;HPM_P2
2022/01/01 00:01:36;;;;;;;18.30;8.68;;;13.90;99.90;;;12.56;100.00;101236.56;5031115;28;20494;-84
2022/01/01 00:04:04;;;;;;;20.25;9.07;;;13.90;99.90;;;12.55;100.00;101237.59;5030743;28;20037;-84
2022/01/01 00:06:31;;;;;;;17.08;8.57;;;13.90;99.90;;;12.54;100.00;101240.50;5031332;28;20972;-84
2022/01/01 00:08:58;;;;;;;17.20;7.97;;;13.90;99.90;;;12.53;100.00;101247.88;5031361;28;20077;-84
2022/01/01 00:11:25;;;;;;;19.15;8.32;;;13.90;99.90;;;12.54;100.00;101257.75;5030853;28;20064;-84
2022/01/01 00:13:52;;;;;;;20.83;7.95;;;13.90;99.90;;;12.58;100.00;101263.69;5030716;28;20073;-84
2022/01/01 00:16:20;;;;;;;14.52;7.10;;;13.80;99.90;;;12.57;100.00;101268.31;5031096;28;20130;-84
2022/01/01 00:18:48;;;;;;;20.73;8.20;;;13.80;99.90;;;12.51;100.00;101267.16;5031013;28;20068;-84
2022/01/01 00:21:16;;;;;;;19.70;7.88;;;13.80;99.90;;;12.50;100.00;101272.78;5030864;28;20046;-84
2022/01/01 00:23:43;;;;;;;18.92;8.23;;;13.80;99.90;;;12.54;100.00;101274.13;5030444;28;20052;-84
2022/01/01 00:26:10;;;;;;;26.77;9.15;;;13.80;99.90;;;12.55;100.00;101272.25;5030801;28;20136;-84
2022/01/01 00:28:37;;;;;;;18.70;8.75;;;13.90;99.90;;;12.54;100.00;101281.47;5030360;28;20046;-87
2022/01/01 00:31:05;;;;;;;20.70;8.90;;;13.80;99.90;;;12.52;100.00;101282.47;5026993;28;20124;-86
2022/01/01 00:33:32;;;;;;;24.73;9.32;;;13.80;99.90;;;12.46;100.00;101283.19;5030084;28;20042;-85
2022/01/01 00:36:01;;;;;;;20.02;9.40;;;13.80;99.90;;;12.43;100.00;101278.13;5010697;28;20076;-85
2022/01/01 00:38:28;;;;;;;18.77;8.40;;;13.80;99.90;;;12.44;100.00;101279.81;5027547;28;20487;-86
2022/01/01 00:40:56;;;;;;;21.65;9.13;;;13.80;99.90;;;12.47;100.00;101267.66;5027906;28;20041;-85
2022/01/01 00:43:24;;;;;;;24.30;9.43;;;13.80;99.90;;;12.42;100.00;101265.47;5033817;23;20046;-85
2022/01/01 00:45:51;;;;;;;23.35;9.73;;;13.80;99.90;;;12.41;100.00;101262.94;4999115;28;20056;-85
2022/01/01 00:48:19;;;;;;;24.40;10.52;;;13.80;99.90;;;12.44;100.00;101274.34;5001572;28;20437;-85
2022/01/01 00:50:46;;;;;;;24.35;10.07;;;13.80;99.90;;;12.48;100.00;101263.91;5007208;28;20068;-85
2022/01/01 00:53:15;;;;;;;21.90;11.25;;;13.80;99.90;;;12.50;100.00;101261.84;5000063;28;20070;-85
2022/01/01 00:55:42;;;;;;;23.40;10.40;;;13.80;99.90;;;12.45;100.00;101270.59;4987743;28;20060;-86
2022/01/01 00:58:10;;;;;;;22.20;10.57;;;13.80;99.90;;;12.42;100.00;101281.88;4988831;28;20152;-86
2022/01/01 01:00:38;;;;;;;26.13;11.45;;;13.80;99.90;;;12.43;100.00;101291.78;4988429;28;20075;-86
2022/01/01 01:03:10;;;;;;;23.65;11.43;;;13.80;99.90;;;12.43;100.00;101290.91;4988081;28;20068;-85
2022/01/01 01:05:38;;;;;;;25.88;10.68;;;13.80;99.90;;;12.45;100.00;101295.16;4988190;28;20058;-86
2022/01/01 01:08:06;;;;;;;21.10;10.63;;;13.80;99.90;;;12.44;100.00;101285.25;4983889;28;20046;-85
2022/01/01 01:10:36;;;;;;;24.88;11.05;;;13.80;99.90;;;12.46;100.00;101283.19;4986477;28;20109;-86
2022/01/01 01:13:03;;;;;;;27.33;10.88;;;13.80;99.90;;;12.47;100.00;101284.91;4988221;28;20055;-86
2022/01/01 01:15:32;;;;;;;24.50;10.65;;;13.80;99.90;;;12.49;100.00;101282.84;4988197;28;20121;-86
2022/01/01 01:18:00;;;;;;;24.90;9.57;;;13.80;99.90;;;12.50;100.00;101294.63;4985362;28;20058;-85
2022/01/01 01:20:29;;;;;;;25.30;9.90;;;13.80;99.90;;;12.50;100.00;101284.53;4966674;28;20450;-85
2022/01/01 01:22:57;;;;;;;20.40;10.18;;;13.80;99.90;;;12.54;100.00;101300.59;4987640;28;20061;-86
2022/01/01 01:25:28;;;;;;;24.77;9.95;;;13.80;99.90;;;12.57;100.00;101300.25;4987686;28;20049;-85
2022/01/01 01:28:05;;;;;;;;;;;13.80;99.90;;;12.52;100.00;101298.88;4991187;28;20044;-86
2022/01/01 01:30:33;;;;;;;22.58;10.30;;;13.80;99.90;;;12.51;100.00;101289.00;4990346;28;19926;-85
2022/01/01 01:33:00;;;;;;;24.85;10.00;;;13.80;99.90;;;12.56;100.00;101296.63;4990225;28;20044;-85
2022/01/01 01:35:28;;;;;;;22.38;10.13;;;13.80;99.90;;;12.55;100.00;101294.09;4990490;28;20112;-85
2022/01/01 01:37:55;;;;;;;27.45;10.95;;;13.80;99.90;;;12.49;100.00;101296.50;4989812;28;20039;-85
2022/01/01 01:40:22;;;;;;;22.40;10.25;;;13.80;99.90;;;12.47;100.00;101290.38;4990459;28;20046;-86
2022/01/01 01:42:49;;;;;;;24.73;11.15;;;13.80;99.90;;;12.45;100.00;101302.50;4990012;28;20054;-86
2022/01/01 01:45:22;;;;;;;24.77;11.02;;;13.80;99.90;;;12.43;100.00;101282.69;4996877;28;20097;-85
2022/01/01 01:47:51;;;;;;;25.85;11.18;;;13.80;99.90;;;12.39;100.00;101281.38;5007282;28;20064;-86
2022/01/01 01:50:20;;;;;;;24.40;10.57;;;13.80;99.90;;;12.41;100.00;101280.16;5010029;28;20117;-86
2022/01/01 01:52:52;;;;;;;23.55;10.73;;;13.80;99.90;;;12.45;100.00;101280.66;4991543;28;20074;-86
2022/01/01 01:55:20;;;;;;;25.48;10.98;;;13.80;99.90;;;12.47;100.00;101279.47;5009666;28;20050;-85
2022/01/01 01:57:47;;;;;;;25.88;11.15;;;13.80;99.90;;;12.47;100.00;101284.91;5010059;28;20052;-86
2022/01/01 02:00:43;;;;;;;24.30;10.43;;;13.80;99.90;;;12.47;100.00;101286.78;5009227;28;20125;-85
2022/01/01 02:03:12;;;;;;;25.77;10.93;;;13.80;99.90;;;12.51;100.00;101299.91;4970036;28;20038;-86
2022/01/01 02:05:40;;;;;;;25.88;11.25;;;13.80;99.90;;;12.51;100.00;101291.72;4970885;28;20351;-85
2022/01/01 02:08:08;;;;;;;24.20;11.65;;;13.80;99.90;;;12.52;100.00;101298.88;4970158;28;20076;-86
2022/01/01 02:10:36;;;;;;;25.75;10.55;;;13.80;99.90;;;12.54;100.00;101306.03;4970731;28;20177;-85
2022/01/01 02:13:12;;;;;;;21.55;10.30;;;13.80;99.90;;;12.45;100.00;101308.81;4970387;28;20046;-85
2022/01/01 02:15:48;;;;;;;25.27;11.60;;;13.80;99.90;;;12.49;100.00;101301.97;4953270;28;20074;-85
2022/01/01 02:18:15;;;;;;;22.05;10.98;;;13.80;99.90;;;12.50;100.00;101306.38;4970316;28;20039;-85
2022/01/01 02:20:49;;;;;;;25.48;10.25;;;13.80;99.90;;;12.48;100.00;101311.19;4970292;28;20043;-86
2022/01/01 02:23:22;;;;;;;26.73;11.45;;;13.80;99.90;;;12.51;100.00;101315.44;4969704;28;20039;-86
2022/01/01 02:25:50;;;;;;;26.75;11.68;;;13.90;99.90;;;12.52;100.00;101307.06;4970485;28;20109;-86
2022/01/01 02:28:18;;;;;;;26.33;11.75;;;13.80;99.90;;;12.51;100.00;101308.09;4953208;28;20057;-85
2022/01/01 02:30:46;;;;;;;28.95;12.38;;;13.80;99.90;;;12.51;100.00;101308.09;4970268;28;20047;-86
2022/01/01 02:33:13;;;;;;;23.30;11.73;;;13.90;99.90;;;12.53;100.00;101313.38;4970018;28;20046;-86
2022/01/01 02:35:40;;;;;;;24.02;11.95;;;13.80;99.90;;;12.49;100.00;101312.88;4982781;28;20243;-86
2022/01/01 02:38:09;;;;;;;29.75;13.73;;;13.90;99.90;;;12.50;100.00;101305.53;4989434;28;20131;-85
2022/01/01 02:40:38;;;;;;;26.85;12.07;;;13.80;99.90;;;12.50;100.00;101300.94;4989272;28;20077;-85
2022/01/01 02:43:05;;;;;;;30.58;12.80;;;13.90;99.90;;;12.50;100.00;101297.34;4989137;28;20125;-85
2022/01/01 02:45:32;;;;;;;30.65;13.20;;;13.80;99.90;;;12.50;100.00;101300.09;4989231;28;20130;-85
2022/01/01 02:47:59;;;;;;;30.17;13.50;;;13.90;99.90;;;12.48;100.00;101307.59;4989536;28;20069;-86
2022/01/01 02:50:27;;;;;;;31.08;13.00;;;13.90;99.90;;;12.48;100.00;101311.19;4989559;28;20069;-85
2022/01/01 02:52:54;;;;;;;31.83;13.27;;;13.80;99.90;;;12.48;100.00;101308.44;4988907;28;20034;-85
2022/01/01 02:55:23;;;;;;;29.13;13.75;;;13.80;99.90;;;12.48;100.00;101308.44;4989262;28;20046;-86
2022/01/01 02:57:50;;;;;;;27.38;14.00;;;13.80;99.90;;;12.47;100.00;101314.06;4989094;28;20039;-86
2022/01/01 03:00:18;;;;;;;28.73;13.65;;;13.80;99.90;;;12.52;100.00;101315.25;4971766;28;20085;-85
2022/01/01 03:02:45;;;;;;;31.75;14.63;;;13.80;99.90;;;12.52;100.00;101326.16;4988919;28;20081;-86
2022/01/01 03:05:13;;;;;;;34.97;15.55;;;13.80;99.90;;;12.49;100.00;101322.97;4989570;28;20046;-86
2022/01/01 03:07:40;;;;;;;29.42;15.07;;;13.80;99.90;;;12.47;100.00;101328.59;4989209;28;20165;-85
2022/01/01 03:10:08;;;;;;;32.00;16.67;;;13.80;99.90;;;12.50;100.00;101332.84;4988971;28;20045;-85
2022/01/01 03:12:37;;;;;;;36.63;16.13;;;13.80;99.90;;;12.54;100.00;101338.81;4988872;28;20049;-85
2022/01/01 03:15:04;;;;;;;30.75;15.10;;;13.80;99.90;;;12.55;100.00;101338.63;4989384;28;20469;-85
2022/01/01 03:17:32;;;;;;;33.22;15.45;;;13.80;99.90;;;12.55;100.00;101337.78;4989310;28;20081;-86
2022/01/01 03:19:59;;;;;;;32.88;15.63;;;13.80;99.90;;;12.54;100.00;101339.66;4992051;28;20066;-86
2022/01/01 03:22:26;;;;;;;32.03;15.15;;;13.70;99.90;;;12.52;100.00;101323.44;4992674;28;20041;-85
2022/01/01 03:24:53;;;;;;;31.27;14.10;;;13.70;99.90;;;12.50;100.00;101328.22;4992606;28;20074;-86
2022/01/01 03:27:21;;;;;;;33.85;15.20;;;13.70;99.90;;;12.51;100.00;101332.69;4993107;28;20149;-85
2022/01/01 03:29:49;;;;;;;34.03;14.75;;;13.70;99.90;;;12.52;100.00;101326.16;4975610;28;20145;-85
2022/01/01 03:32:16;;;;;;;35.83;14.98;;;13.70;99.90;;;12.52;100.00;101320.72;4992467;28;20121;-86
2022/01/01 03:34:44;;;;;;;29.75;13.95;;;13.80;99.90;;;12.51;100.00;101323.66;4992688;28;20121;-85
2022/01/01 03:37:12;;;;;;;31.90;13.85;;;13.80;99.90;;;12.45;100.00;101318.88;4992644;28;20578;-86
2022/01/01 03:39:39;;;;;;;30.05;14.65;;;13.70;99.90;;;12.44;100.00;101318.03;4991150;28;20046;-85
2022/01/01 03:42:07;;;;;;;27.58;14.00;;;13.80;99.90;;;12.38;100.00;101320.63;4991467;28;20384;-85
2022/01/01 03:44:34;;;;;;;29.42;14.05;;;13.80;99.90;;;12.43;100.00;101324.53;4994936;28;20077;-85
2022/01/01 03:47:09;;;;;;;31.73;14.15;;;13.80;99.90;;;12.46;100.00;101324.16;4994939;28;20061;-85
2022/01/01 03:49:36;;;;;;;25.80;13.48;;;13.80;99.90;;;12.49;100.00;101314.78;4992397;28;20042;-85
2022/01/01 03:52:04;;;;;;;31.88;14.13;;;13.80;99.90;;;12.50;100.00;101314.56;4992141;28;20892;-85
2022/01/01 03:54:32;;;;;;;26.20;13.40;;;13.80;99.90;;;12.46;100.00;101312.38;4992023;28;20069;-86
2022/01/01 03:56:59;;;;;;;30.08;13.65;;;13.70;99.90;;;12.46;100.00;101301.47;4992526;28;20081;-85
2022/01/01 03:59:26;;;;;;;30.80;13.75;;;13.80;99.90;;;12.47;100.00;101297.69;4992909;28;20056;-85
2022/01/01 04:01:54;;;;;;;28.42;14.18;;;13.70;99.90;;;12.46;100.00;101296.84;4994245;28;20121;-85
2022/01/01 04:04:25;;;;;;;30.50;13.93;;;13.80;99.90;;;12.49;100.00;101288.31;4990999;28;20055;-85
2022/01/01 04:06:52;;;;;;;25.88;13.25;;;13.80;99.90;;;12.54;100.00;101289.66;4992250;28;20522;-86
2022/01/01 04:09:20;;;;;;;27.77;13.02;;;13.80;99.90;;;12.55;100.00;101281.28;4991563;28;20042;-85
2022/01/01 04:11:47;;;;;;;28.02;12.77;;;13.70;99.90;;;12.54;100.00;101286.94;4991817;28;20039;-85
2022/01/01 04:14:16;;;;;;;28.20;13.18;;;13.80;99.90;;;12.49;100.00;101282.84;4992432;28;20133;-85
2022/01/01 04:16:46;;;;;;;26.25;13.27;;;13.70;99.90;;;12.45;100.00;101281.53;4992138;28;20057;-86
2022/01/01 04:19:13;;;;;;;27.70;13.63;;;13.70;99.90;;;12.46;100.00;101293.28;4991991;28;20190;-85
2022/01/01 04:21:42;;;;;;;28.52;13.07;;;13.70;99.90;;;12.48;100.00;101291.22;4991969;28;20129;-86
2022/01/01 04:24:09;;;;;;;26.85;13.98;;;13.80;99.90;;;12.50;100.00;101289.16;4991488;28;20122;-86
2022/01/01 04:26:36;;;;;;;25.95;13.20;;;13.70;99.90;;;12.51;100.00;101291.72;4991851;28;20050;-85
2022/01/01 04:29:04;;;;;;;26.58;13.13;;;13.70;99.90;;;12.52;100.00;101293.41;4991844;28;20042;-85
2022/01/01 04:31:31;;;;;;;28.48;14.07;;;13.70;99.90;;;12.54;100.00;101289.66;4991354;28;20050;-85
2022/01/01 04:33:58;;;;;;;27.75;12.63;;;13.70;99.90;;;12.51;100.00;101296.34;4989465;28;20038;-85
2022/01/01 04:36:25;;;;;;;27.33;12.00;;;13.70;99.90;;;12.50;100.00;101290.00;4991426;28;20078;-86
2022/01/01 04:38:54;;;;;;;24.95;11.73;;;13.70;99.90;;;12.51;100.00;101297.19;4991142;28;20057;-85
2022/01/01 04:41:21;;;;;;;29.67;12.02;;;13.70;99.90;;;12.47;100.00;101290.38;4991274;28;20046;-85
2022/01/01 04:43:49;;;;;;;28.08;11.52;;;13.70;99.90;;;12.43;100.00;101297.22;4974028;28;20727;-85
2022/01/01 04:46:17;;;;;;;24.25;11.15;;;13.70;99.90;;;12.45;100.00;101297.91;4991470;28;20066;-85
2022/01/01 04:48:44;;;;;;;24.33;11.52;;;13.70;99.90;;;12.44;100.00;101282.53;4991755;28;20428;-85
2022/01/01 04:51:13;;;;;;;22.50;10.18;;;13.70;99.90;;;12.40;100.00;101281.19;4991470;28;20435;-85
2022/01/01 04:53:43;;;;;;;25.80;10.50;;;13.70;99.90;;;12.43;100.00;101289.03;4991020;28;20042;-85
2022/01/01 04:56:17;;;;;;;24.17;10.52;;;13.80;99.90;;;12.48;100.00;101285.75;4991443;28;20038;-86
2022/01/01 04:58:45;;;;;;;19.88;8.63;;;13.70;99.90;;;12.48;100.00;101293.94;4991257;28;20052;-86
2022/01/01 05:01:14;;;;;;;25.25;9.73;;;13.80;99.90;;;12.41;100.00;101298.41;4990883;28;20380;-85
2022/01/01 05:03:41;;;;;;;22.52;9.25;;;13.70;99.90;;;12.44;100.00;101289.88;4991305;28;20041;-85
2022/01/01 05:06:08;;;;;;;22.92;9.10;;;13.70;99.90;;;12.47;100.00;101290.38;4991077;28;20081;-86
2022/01/01 05:08:35;;;;;;;19.70;9.02;;;13.80;99.90;;;12.50;100.00;101287.28;4990854;28;20050;-86
2022/01/01 05:11:03;;;;;;;26.67;8.75;;;13.70;99.90;;;12.48;100.00;101304.88;4990622;28;20050;-86
2022/01/01 05:13:32;;;;;;;23.42;8.88;;;13.70;99.90;;;12.47;100.00;101306.75;4990943;28;20145;-85
2022/01/01 05:15:59;;;;;;;18.83;7.60;;;13.70;99.90;;;12.43;100.00;101310.88;4990892;28;20050;-85
2022/01/01 05:18:26;;;;;;;16.52;7.65;;;13.70;99.90;;;12.45;100.00;101310.69;4990892;28;20054;-85
2022/01/01 05:20:53;;;;;;;20.35;8.13;;;13.70;99.90;;;12.43;100.00;101319.06;4991012;28;20517;-85
2022/01/01 05:23:21;;;;;;;21.30;6.95;;;13.70;99.90;;;12.45;100.00;101317.00;4972660;28;20141;-86
2022/01/01 05:25:48;;;;;;;20.90;8.18;;;13.70;99.90;;;12.48;100.00;101326.72;4990802;28;20084;-86
2022/01/01 05:28:15;;;;;;;20.48;7.53;;;13.70;99.90;;;12.47;100.00;101334.06;4990564;28;20042;-86
2022/01/01 05:30:44;;;;;;;19.27;7.50;;;13.70;99.90;;;12.51;100.00;101329.94;4990653;28;20113;-86
2022/01/01 05:33:11;;;;;;;16.98;7.55;;;13.80;99.90;;;12.47;100.00;101336.78;4971082;28;20133;-86
2022/01/01 05:35:38;;;;;;;20.77;7.82;;;13.70;99.90;;;12.50;100.00;101341.03;4989916;28;20054;-86
2022/01/01 05:38:05;;;;;;;16.15;7.22;;;13.70;99.90;;;12.47;100.00;101341.38;4990220;28;20046;-86
2022/01/01 05:40:33;;;;;;;16.25;7.20;;;13.70;99.90;;;12.48;100.00;101335.75;4990266;28;20542;-86
2022/01/01 05:43:00;;;;;;;17.63;6.82;;;13.70;99.90;;;12.47;100.00;101339.53;4989534;28;20066;-86
2022/01/01 05:45:27;;;;;;;16.95;7.47;;;13.70;99.90;;;12.49;100.00;101339.34;5000720;28;20046;-85
2022/01/01 05:47:56;;;;;;;14.70;7.03;;;13.70;99.90;;;12.49;100.00;101342.94;5009869;28;20052;-87
2022/01/01 05:50:23;;;;;;;19.13;7.38;;;13.70;99.90;;;12.50;100.00;101339.16;5009072;28;20092;-86
2022/01/01 05:52:51;;;;;;;18.45;7.60;;;13.80;99.90;;;12.53;100.00;101329.78;5007396;28;20128;-86
2022/01/01 05:55:18;;;;;;;20.75;7.93;;;13.70;99.90;;;12.52;100.00;101331.63;5009631;28;20120;-86
2022/01/01 05:57:45;;;;;;;14.95;7.10;;;13.70;99.90;;;12.54;100.00;101325.16;5010639;28;20069;-87
2022/01/01 06:00:16;;;;;;;21.73;8.20;;;13.70;99.90;;;12.52;100.00;101331.63;5010341;28;20336;-87
2022/01/01 06:02:44;;;;;;;19.95;8.00;;;13.60;99.90;;;12.45;100.00;101325.19;5009862;28;20104;-87
2022/01/01 06:05:12;;;;;;;20.25;8.43;;;13.70;99.90;;;12.50;100.00;101338.31;5009898;28;20073;-87
2022/01/01 06:07:40;;;;;;;14.32;7.13;;;13.70;99.90;;;12.47;100.00;101327.72;5009576;28;20042;-87
2022/01/01 06:10:08;;;;;;;16.45;7.00;;;13.70;99.90;;;12.52;100.00;101336.25;5009283;28;20513;-87
2022/01/01 06:12:39;;;;;;;18.42;6.85;;;13.70;99.90;;;12.52;100.00;101331.63;5009302;28;20133;-87
2022/01/01 06:15:08;;;;;;;21.70;7.35;;;13.70;99.90;;;12.48;100.00;101322.09;5009702;28;20121;-87
2022/01/01 06:17:35;;;;;;;15.70;7.35;;;13.70;99.90;;;12.55;100.00;101315.94;5009387;28;20069;-87
2022/01/01 06:20:02;;;;;;;18.30;7.50;;;13.70;99.90;;;12.54;100.00;101327.88;5009434;28;20133;-87
2022/01/01 06:22:31;;;;;;;19.75;7.28;;;13.70;99.90;;;12.47;100.00;101327.72;5008850;28;20402;-87
2022/01/01 06:24:58;;;;;;;18.30;7.80;;;13.70;99.90;;;12.50;100.00;101333.69;5008973;28;20128;-88
2022/01/01 06:27:26;;;;;;;16.15;6.43;;;13.80;99.90;;;12.49;100.00;101333.88;5009573;28;20572;-87
2022/01/01 06:29:54;;;;;;;24.98;8.00;;;13.80;99.90;;;12.51;100.00;101338.13;5009713;28;20499;-87
2022/01/01 06:32:21;;;;;;;19.48;7.38;;;13.70;99.90;;;12.52;100.00;101331.63;5005955;28;20048;-87
2022/01/01 06:34:48;;;;;;;16.48;6.78;;;13.70;99.90;;;12.52;100.00;101337.09;4989340;28;20056;-87
2022/01/01 06:37:16;;;;;;;15.88;7.18;;;13.80;99.90;;;12.51;100.00;101345.50;4989693;28;20046;-87
2022/01/01 06:39:45;;;;;;;20.48;7.07;;;13.70;99.90;;;12.53;100.00;101348.88;4986419;28;20125;-87
2022/01/01 06:42:12;;;;;;;18.27;6.35;;;13.80;99.90;;;12.51;100.00;101343.59;4989366;28;20047;-87
2022/01/01 06:44:39;;;;;;;21.38;7.07;;;13.80;99.90;;;12.50;100.00;101336.41;5004573;22;20474;-84
2022/01/01 06:47:07;;;;;;;19.83;7.38;;;13.80;99.90;;;12.46;100.00;101337.81;4988791;28;20549;-84
2022/01/01 06:49:34;;;;;;;16.90;6.82;;;13.80;99.90;;;12.42;100.00;101339.19;4989487;28;20062;-83
2022/01/01 06:52:01;;;;;;;17.58;6.72;;;13.80;99.90;;;12.47;100.00;101339.53;4987889;28;20054;-83
2022/01/01 06:54:28;;;;;;;16.35;6.20;;;13.80;99.90;;;12.48;100.00;101346.66;5003963;28;20120;-83
2022/01/01 06:56:57;;;;;;;15.32;6.70;;;13.80;99.90;;;12.50;100.00;101350.06;5013149;28;20045;-84
2022/01/01 06:59:25;;;;;;;16.20;6.55;;;13.80;99.90;;;12.50;100.00;101350.06;5013198;28;20080;-84
2022/01/01 07:01:53;;;;;;;18.27;6.70;;;13.80;99.90;;;12.45;100.00;101363.41;5012744;28;20077;-83
2022/01/01 07:04:20;;;;;;;18.38;6.25;;;13.80;99.90;;;12.47;100.00;101355.91;5013068;28;20042;-84
2022/01/01 07:06:48;;;;;;;17.75;6.55;;;13.70;99.90;;;12.50;100.00;101347.34;5013145;28;20042;-83
2022/01/01 07:09:16;;;;;;;14.30;6.00;;;13.70;99.90;;;12.50;100.00;101343.78;5012532;28;20092;-84
2022/01/01 07:11:43;;;;;;;15.63;5.43;;;13.80;99.90;;;12.49;100.00;101348.38;5012429;28;20124;-84
2022/01/01 07:14:12;;;;;;;13.85;6.07;;;13.80;99.90;;;12.48;100.00;101346.66;5012761;28;20046;-84
2022/01/01 07:16:39;;;;;;;18.20;5.32;;;13.80;99.90;;;12.47;100.00;101355.03;5012622;28;20459;-83
2022/01/01 07:19:07;;;;;;;13.77;5.50;;;13.70;99.90;;;12.48;100.00;101349.41;5012673;28;20042;-84
2022/01/01 07:21:34;;;;;;;16.10;5.70;;;13.70;99.90;;;12.50;100.00;101358.25;5012375;28;20046;-84
2022/01/01 07:24:01;;;;;;;16.63;5.38;;;13.80;99.90;;;12.50;100.00;101349.22;5012205;28;20038;-84
2022/01/01 07:26:28;;;;;;;14.80;5.53;;;13.80;99.90;;;12.51;100.00;101350.94;5012612;28;20471;-84
2022/01/01 07:28:56;;;;;;;12.25;4.90;;;13.80;99.90;;;12.51;100.00;101359.13;5012501;28;20120;-84
2022/01/01 07:31:24;;;;;;;17.90;5.55;;;13.80;99.90;;;12.50;100.00;101368.34;5012175;28;20132;-84
2022/01/01 07:33:51;;;;;;;20.02;5.55;;;13.80;99.90;;;12.49;100.00;101364.78;5012431;28;20493;-84
2022/01/01 07:36:19;;;;;;;14.82;4.95;;;13.80;99.90;;;12.50;100.00;101374.66;5012467;28;20074;-84
2022/01/01 07:38:46;;;;;;;19.85;5.65;;;13.80;99.90;;;12.49;100.00;101372.97;5011766;28;20046;-83
2022/01/01 07:41:13;;;;;;;12.20;5.10;;;13.70;99.90;;;12.51;100.00;101365.44;5010509;28;20408;-84
2022/01/01 07:43:40;;;;;;;20.88;6.05;;;13.70;99.90;;;12.52;100.00;101366.28;5011535;28;20030;-84
2022/01/01 07:46:08;;;;;;;19.95;4.72;;;13.80;99.90;;;12.52;100.00;101377.19;5010960;28;20453;-84
2022/01/01 07:48:36;;;;;;;15.10;5.20;;;13.70;99.90;;;12.51;100.00;101379.09;5011778;28;20383;-84
2022/01/01 07:51:03;;;;;;;15.40;4.70;;;13.80;99.90;;;12.50;100.00;101388.28;5010934;28;20690;-84
2022/01/01 07:53:31;;;;;;;17.65;5.72;;;13.80;99.90;;;12.49;100.00;101389.34;5010983;28;20556;-84
2022/01/01 07:55:58;;;;;;;14.13;4.70;;;13.80;99.90;;;12.49;100.00;101392.06;5011207;28;20042;-84
2022/01/01 07:58:25;;;;;;;13.65;5.05;;;13.80;99.90;;;12.49;100.00;101392.06;5012101;28;20077;-84
2022/01/01 08:00:52;;;;;;;16.48;4.97;;;13.80;99.90;;;12.50;100.00;101399.22;5011933;28;20049;-84
2022/01/01 08:03:20;;;;;;;14.30;4.72;;;13.80;99.90;;;12.52;100.00;101402.63;5011733;28;20116;-84
2022/01/01 08:05:48;;;;;;;15.98;5.18;;;13.80;99.90;;;12.54;100.00;101388.78;5011308;28;20769;-84
2022/01/01 08:08:16;;;;;;;13.82;4.47;;;13.80;99.90;;;12.52;100.00;101396.31;5011766;28;20479;-84
2022/01/01 08:10:43;;;;;;;14.55;4.20;;;13.80;99.90;;;12.54;100.00;101390.69;5009444;28;20078;-84
2022/01/01 08:13:24;;;;;;;12.32;4.25;;;13.80;99.90;;;12.54;100.00;101394.25;5006074;28;20530;-84
2022/01/01 08:16:00;;;;;;;13.98;4.30;;;13.80;99.90;;;12.52;100.00;101391.69;5010367;28;20412;-84
2022/01/01 08:18:30;;;;;;;17.35;4.65;;;13.80;99.90;;;12.55;100.00;101392.41;5011219;28;20148;-84
2022/01/01 08:20:59;;;;;;;12.45;4.15;;;13.90;99.90;;;12.55;100.00;101389.69;4993071;28;20060;-83
2022/01/01 08:23:51;;;;;;;;;;;;;;;;;;;;;
2022/01/01 08:26:19;;;;;;;11.20;4.22;;;13.90;99.90;;;12.58;100.00;101389.31;5010995;28;20042;-84
2022/01/01 08:28:49;;;;;;;16.25;4.00;;;13.90;99.90;;;12.60;100.00;101400.91;5010170;28;20844;-84
2022/01/01 08:31:16;;;;;;;13.43;4.07;;;13.90;99.90;;;12.60;100.00;101403.63;5010326;28;20053;-84
2022/01/01 08:33:51;;;;;;;12.70;4.28;;;13.90;99.90;;;12.60;100.00;101403.63;5009606;28;20034;-84
2022/01/01 08:36:26;;;;;;;13.25;4.03;;;13.90;99.90;;;12.59;100.00;101401.94;4992205;28;20125;-84
2022/01/01 08:39:05;;;;;;;12.75;3.72;;;13.90;99.90;;;12.61;100.00;101408.06;5010160;28;20046;-84
2022/01/01 08:41:33;;;;;;;10.35;3.72;;;13.90;99.90;;;12.60;100.00;101406.34;5010569;28;20141;-84
2022/01/01 08:44:00;;;;;;;13.90;4.10;;;13.90;99.90;;;12.61;100.00;101408.06;5010039;28;20044;-84
2022/01/01 08:46:28;;;;;;;11.38;3.85;;;13.90;99.90;;;12.58;100.00;101411.16;5010672;28;20048;-84
2022/01/01 08:49:02;;;;;;;9.40;3.50;;;13.90;99.90;;;12.58;100.00;101411.16;5010387;28;20387;-84
2022/01/01 08:51:31;;;;;;;18.95;4.45;;;13.90;99.90;;;12.61;100.00;101413.53;4991485;28;20073;-84
2022/01/01 08:53:58;;;;;;;14.35;3.78;;;13.90;99.90;;;12.61;100.00;101416.28;5008937;28;20124;-84
2022/01/01 08:56:26;;;;;;;14.48;3.60;;;13.90;99.90;;;12.59;100.00;101410.13;5007415;28;20081;-84
2022/01/01 08:58:53;;;;;;;10.63;3.83;;;13.90;99.90;;;12.57;100.00;101398.53;5010182;28;20471;-83
2022/01/01 09:01:22;;;;;;;13.15;3.95;;;13.90;99.90;;;12.52;100.00;101408.09;5009634;28;20126;-84
2022/01/01 09:03:49;;;;;;;14.57;3.72;;;13.90;99.90;;;12.55;100.00;101401.44;5006991;28;20061;-83
2022/01/01 09:06:17;;;;;;;13.02;3.35;;;13.90;99.90;;;12.61;100.00;101405.34;4988576;28;20054;-84
2022/01/01 09:08:45;;;;;;;10.15;3.75;;;13.90;99.90;;;12.64;100.00;101410.44;5009524;28;20052;-84
2022/01/01 09:11:14;;;;;;;15.25;3.55;;;13.90;99.90;;;12.67;100.00;101405.47;5009731;28;20054;-84
2022/01/01 09:13:43;;;;;;;20.33;3.80;;;13.90;99.90;;;12.71;100.00;101401.34;5007030;28;20045;-84
2022/01/01 09:16:11;;;;;;;11.10;3.78;;;13.90;99.90;;;12.74;100.00;101400.19;5010815;28;20490;-84
2022/01/01 09:18:39;;;;;;;14.18;4.05;;;13.90;99.90;;;12.77;100.00;101396.22;5006947;28;20042;-83
2022/01/01 09:21:07;;;;;;;19.38;4.28;;;14.00;99.90;;;12.77;100.00;101405.25;5008798;28;20041;-84
2022/01/01 09:23:37;;;;;;;13.25;3.50;;;14.00;99.90;;;12.80;100.00;101398.63;5008982;28;20116;-83
2022/01/01 09:26:06;;;;;;;11.70;3.47;;;14.00;99.90;;;12.80;100.00;101406.81;5009713;28;20061;-84
2022/01/01 09:28:35;;;;;;;15.60;3.97;;;14.00;99.90;;;12.83;100.00;101400.97;5009601;28;20536;-87
2022/01/01 09:31:03;;;;;;;14.65;3.47;;;14.00;99.90;;;12.83;100.00;101399.13;5009579;28;20065;-87
2022/01/01 09:33:36;;;;;;;15.52;3.47;;;14.00;99.90;;;12.84;100.00;101400.81;5009790;28;20034;-89
2022/01/01 09:36:07;;;;;;;13.48;3.45;;;14.00;99.90;;;12.84;100.00;101405.41;5007573;28;20100;-94
2022/01/01 09:38:38;;;;;;;9.63;3.30;;;14.10;99.90;;;12.80;100.00;101410.38;4991327;28;20049;-91
2022/01/01 09:41:15;;;;;;;10.02;3.28;;;14.10;99.90;;;12.78;100.00;101406.13;5010164;28;20292;-93
2022/01/01 09:43:43;;;;;;;11.20;3.08;;;14.10;99.90;;;12.82;100.00;101410.22;4990364;28;20410;-89
2022/01/01 09:46:15;;;;;;;13.82;3.35;;;14.10;99.90;;;12.81;100.00;101408.50;5006994;28;20045;-87
2022/01/01 09:48:42;;;;;;;14.60;3.20;;;14.10;99.90;;;12.80;100.00;101410.38;5009685;28;20139;-88
2022/01/01 09:51:10;;;;;;;9.82;3.05;;;14.10;99.90;;;12.82;100.00;101418.41;5008903;28;20117;-88
2022/01/01 09:53:37;;;;;;;12.27;3.25;;;14.10;99.90;;;12.83;100.00;101415.50;4991567;28;20549;-90
2022/01/01 09:56:06;;;;;;;12.10;3.00;;;14.10;99.90;;;12.86;100.00;101414.28;5009190;28;20092;-89
2022/01/01 09:58:37;;;;;;;11.73;3.03;;;14.10;99.90;;;12.87;100.00;101414.13;4991905;28;20049;-89
2022/01/01 10:01:07;;;;;;;11.05;3.00;;;14.10;99.90;;;12.88;100.00;101413.06;4991848;28;20042;-91
2022/01/01 10:03:38;;;;;;;13.43;2.88;;;14.10;99.90;;;12.90;100.00;101421.09;4992242;28;20181;-89